Webcam Flughafen St.Gallen-Altenrhein

Live-Bilder und Zeitraffer LSZR / ACH.

 

Live aus Altenrhein
LIVE
LSZR 170150Z AUTO 24003KT 210V280 9999 OVC009 05/04 Q1009
Zeitraffer heute
2019-11-17 00:14:38
LSZR 162250Z AUTO VRB02KT 9999 BKN009 04/03 Q1011